createdAt,value
2023-07-27T00:00:07.964Z,3.70
2023-07-27T00:02:37.488Z,3.70
2023-07-27T00:05:06.198Z,3.70
2023-07-27T00:07:34.317Z,4.37
2023-07-27T00:10:03.583Z,3.50
2023-07-27T00:12:31.751Z,3.73
2023-07-27T00:14:59.702Z,3.90
2023-07-27T00:17:27.894Z,3.53
2023-07-27T00:19:56.696Z,3.77
2023-07-27T00:22:26.013Z,4.00
2023-07-27T00:24:54.221Z,3.20
2023-07-27T00:27:23.509Z,3.30
2023-07-27T00:29:51.456Z,3.97
2023-07-27T00:32:19.340Z,4.23
2023-07-27T00:34:48.384Z,4.40
2023-07-27T00:37:16.384Z,3.40
2023-07-27T00:39:45.599Z,4.17
2023-07-27T00:42:13.585Z,4.03
2023-07-27T00:44:43.079Z,3.70
2023-07-27T00:47:11.113Z,3.77
2023-07-27T00:49:39.282Z,3.50
2023-07-27T00:52:08.867Z,4.20
2023-07-27T00:54:37.392Z,4.50
2023-07-27T00:57:07.584Z,4.90
2023-07-27T00:59:37.376Z,3.73
2023-07-27T01:02:07.094Z,4.20
2023-07-27T01:04:35.768Z,3.70
2023-07-27T01:07:04.014Z,3.63
2023-07-27T01:09:33.444Z,3.30
2023-07-27T01:12:09.403Z,3.90
2023-07-27T01:14:54.266Z,4.00
2023-07-27T01:17:28.528Z,3.90
2023-07-27T01:20:11.735Z,4.50
2023-07-27T01:22:56.046Z,4.33
2023-07-27T01:25:45.908Z,4.40
2023-07-27T01:28:28.189Z,4.23
2023-07-27T01:31:02.361Z,3.80
2023-07-27T01:33:40.056Z,4.33
2023-07-27T01:36:12.578Z,3.83
2023-07-27T01:38:45.265Z,4.27
2023-07-27T01:41:15.264Z,4.13
2023-07-27T01:43:44.429Z,3.97
2023-07-27T01:46:15.067Z,3.77
2023-07-27T01:48:45.109Z,4.20
2023-07-27T01:51:14.616Z,4.23
2023-07-27T01:53:44.348Z,4.40
2023-07-27T01:56:13.725Z,3.80
2023-07-27T01:58:42.644Z,3.90
2023-07-27T02:01:10.916Z,4.17
2023-07-27T02:03:40.281Z,4.23
2023-07-27T02:06:08.301Z,3.63
2023-07-27T02:08:37.332Z,3.90
2023-07-27T02:11:06.796Z,4.40
2023-07-27T02:13:40.874Z,4.50
2023-07-27T02:16:26.897Z,4.27
2023-07-27T02:18:59.677Z,4.30
2023-07-27T02:21:30.146Z,4.03
2023-07-27T02:23:59.739Z,4.90
2023-07-27T02:26:29.024Z,4.70
2023-07-27T02:28:57.852Z,4.37
2023-07-27T02:31:27.422Z,4.07
2023-07-27T02:33:56.700Z,4.03
2023-07-27T02:36:24.617Z,3.90
2023-07-27T02:38:52.851Z,3.50
2023-07-27T02:41:22.293Z,4.47
2023-07-27T02:43:51.967Z,4.00
2023-07-27T02:46:21.207Z,3.90
2023-07-27T02:48:49.286Z,4.20
2023-07-27T02:51:18.605Z,4.40
2023-07-27T02:53:46.958Z,4.37
2023-07-27T02:56:23.336Z,4.30
2023-07-27T02:58:52.178Z,4.20
2023-07-27T03:01:22.798Z,3.60
2023-07-27T03:03:57.587Z,4.40
2023-07-27T03:06:27.148Z,3.97
2023-07-27T03:08:58.783Z,3.90
2023-07-27T03:11:26.854Z,4.00
2023-07-27T03:13:55.137Z,4.17
2023-07-27T03:16:23.104Z,3.97
2023-07-27T03:18:52.172Z,4.37
2023-07-27T03:21:20.726Z,4.10
2023-07-27T03:23:51.515Z,4.33
2023-07-27T03:26:19.558Z,4.30
2023-07-27T03:28:47.535Z,3.90
2023-07-27T03:31:20.367Z,3.87
2023-07-27T03:33:48.745Z,3.00
2023-07-27T03:36:18.738Z,3.73
2023-07-27T03:38:47.229Z,3.57
2023-07-27T03:41:16.951Z,3.97
2023-07-27T03:43:44.928Z,4.00
2023-07-27T03:46:12.920Z,3.67
2023-07-27T03:48:40.946Z,3.90
2023-07-27T03:51:15.444Z,4.00
2023-07-27T03:53:44.065Z,3.90
2023-07-27T03:56:12.242Z,3.70
2023-07-27T03:58:43.984Z,4.10
2023-07-27T04:01:13.145Z,3.80
2023-07-27T04:03:41.128Z,4.10
2023-07-27T04:06:09.125Z,4.20
2023-07-27T04:08:37.065Z,4.30
2023-07-27T04:11:05.311Z,4.27
2023-07-27T04:13:33.250Z,3.97
2023-07-27T04:16:02.658Z,4.60
2023-07-27T04:18:31.652Z,4.07
2023-07-27T04:21:00.010Z,3.87
2023-07-27T04:23:29.064Z,3.80
2023-07-27T04:25:57.146Z,4.30
2023-07-27T04:28:25.075Z,4.00
2023-07-27T04:30:53.046Z,3.70
2023-07-27T04:33:22.594Z,5.03
2023-07-27T04:35:50.632Z,4.10
2023-07-27T04:38:18.628Z,3.63
2023-07-27T04:40:46.943Z,4.17
2023-07-27T04:43:15.963Z,3.90
2023-07-27T04:45:43.878Z,4.00
2023-07-27T04:48:11.813Z,3.57
2023-07-27T04:50:41.386Z,4.70
2023-07-27T04:53:09.374Z,4.30
2023-07-27T04:55:37.349Z,3.10
2023-07-27T04:58:05.403Z,4.60
2023-07-27T05:00:33.363Z,3.93
2023-07-27T05:03:01.298Z,3.50
2023-07-27T05:05:29.220Z,3.93
2023-07-27T05:07:58.470Z,4.40
2023-07-27T05:10:26.508Z,3.60
2023-07-27T05:12:56.522Z,3.30
2023-07-27T05:15:24.423Z,3.70
2023-07-27T05:17:52.414Z,3.47
2023-07-27T05:20:20.669Z,3.20
2023-07-27T05:22:48.585Z,3.53
2023-07-27T05:25:18.921Z,3.90
2023-07-27T05:27:46.891Z,4.37
2023-07-27T05:30:15.022Z,3.33
2023-07-27T05:32:42.972Z,3.70
2023-07-27T05:35:10.970Z,3.73
2023-07-27T05:37:41.955Z,4.03
2023-07-27T05:40:11.168Z,3.70
2023-07-27T05:42:40.806Z,3.60
2023-07-27T05:45:10.231Z,4.10
2023-07-27T05:47:38.502Z,3.97
2023-07-27T05:50:07.680Z,3.43
2023-07-27T05:52:35.673Z,3.50
2023-07-27T05:55:04.867Z,3.80
2023-07-27T05:57:34.931Z,3.60
2023-07-27T06:00:08.064Z,3.53
2023-07-27T06:02:36.734Z,4.10
2023-07-27T06:05:05.923Z,3.30
2023-07-27T06:07:33.914Z,3.77
2023-07-27T06:10:02.007Z,3.23
2023-07-27T06:12:30.034Z,3.10
2023-07-27T06:14:58.254Z,3.90
2023-07-27T06:17:28.591Z,3.20
2023-07-27T06:19:56.621Z,3.30
2023-07-27T06:22:25.026Z,3.10
2023-07-27T06:24:52.962Z,3.37
2023-07-27T06:27:21.146Z,3.43
2023-07-27T06:29:49.044Z,3.63
2023-07-27T06:32:17.064Z,3.27
2023-07-27T06:34:46.360Z,3.10
2023-07-27T06:37:14.253Z,3.40
2023-07-27T06:39:42.985Z,3.30
2023-07-27T06:42:10.893Z,3.30
2023-07-27T06:44:38.913Z,3.47
2023-07-27T06:47:07.656Z,3.40
2023-07-27T06:49:35.775Z,3.77
2023-07-27T06:52:05.915Z,3.37
2023-07-27T06:54:33.856Z,2.93
2023-07-27T06:57:01.784Z,3.40
2023-07-27T06:59:30.760Z,3.13
2023-07-27T07:01:58.850Z,3.20
2023-07-27T07:04:26.820Z,3.70
2023-07-27T07:06:54.795Z,3.07
2023-07-27T07:09:24.102Z,3.50
2023-07-27T07:11:52.041Z,2.93
2023-07-27T07:14:19.962Z,3.00
2023-07-27T07:16:47.964Z,3.17
2023-07-27T07:19:15.901Z,3.33
2023-07-27T07:21:43.840Z,3.00
2023-07-27T07:24:11.804Z,3.27
2023-07-27T07:26:42.649Z,3.57
2023-07-27T07:29:10.732Z,3.40
2023-07-27T07:31:38.716Z,3.50
2023-07-27T07:34:12.854Z,3.10
2023-07-27T07:36:40.771Z,2.87
2023-07-27T07:39:08.794Z,3.47
2023-07-27T07:41:36.724Z,3.37
2023-07-27T07:44:06.317Z,3.20
2023-07-27T07:46:34.486Z,3.23
2023-07-27T07:49:02.702Z,3.43
2023-07-27T07:51:30.625Z,2.90
2023-07-27T07:53:58.526Z,3.87
2023-07-27T07:56:26.426Z,3.20
2023-07-27T07:58:54.335Z,3.47
2023-07-27T08:01:23.661Z,3.50
2023-07-27T08:03:51.832Z,3.37
2023-07-27T08:06:19.875Z,3.30
2023-07-27T08:08:48.169Z,3.40
2023-07-27T08:11:16.339Z,3.10
2023-07-27T08:13:44.277Z,3.63
2023-07-27T08:16:12.220Z,3.40
2023-07-27T08:18:41.571Z,3.30
2023-07-27T08:21:10.624Z,3.90
2023-07-27T08:23:38.715Z,3.30
2023-07-27T08:26:11.202Z,3.83
2023-07-27T08:28:39.160Z,3.73
2023-07-27T08:31:07.585Z,3.43
2023-07-27T08:33:57.821Z,3.70
2023-07-27T08:36:25.964Z,3.40
2023-07-27T08:38:53.993Z,3.70
2023-07-27T08:41:22.082Z,3.80
2023-07-27T08:43:52.108Z,3.93
2023-07-27T08:46:21.492Z,3.67
2023-07-27T08:48:51.813Z,3.50
2023-07-27T08:51:21.104Z,3.50
2023-07-27T08:53:52.138Z,4.20
2023-07-27T08:56:21.119Z,3.80
2023-07-27T08:58:49.076Z,3.50
2023-07-27T09:01:17.478Z,3.80
2023-07-27T09:03:46.042Z,3.80
2023-07-27T09:06:14.783Z,3.27
2023-07-27T09:08:44.128Z,3.70
2023-07-27T09:11:13.331Z,4.23
2023-07-27T09:13:43.206Z,3.10
2023-07-27T09:16:11.367Z,3.60
2023-07-27T09:18:39.763Z,3.23
2023-07-27T09:21:09.649Z,3.70
2023-07-27T09:23:38.315Z,4.40
2023-07-27T09:26:07.910Z,4.50
2023-07-27T09:28:35.996Z,4.53
2023-07-27T09:31:04.946Z,4.07
2023-07-27T09:33:33.470Z,4.17
2023-07-27T09:36:03.034Z,4.20
2023-07-27T09:38:31.287Z,3.80
2023-07-27T09:40:59.251Z,4.80
2023-07-27T09:43:28.685Z,4.40
2023-07-27T09:46:00.908Z,4.00
2023-07-27T09:48:31.364Z,4.40
2023-07-27T09:51:00.249Z,4.20
2023-07-27T09:53:30.915Z,4.37
2023-07-27T09:56:00.793Z,4.27
2023-07-27T09:58:31.052Z,4.13
2023-07-27T10:01:00.045Z,4.73
2023-07-27T10:03:30.182Z,3.80
2023-07-27T10:05:58.996Z,4.40
2023-07-27T10:08:34.100Z,3.70
2023-07-27T10:11:04.072Z,4.20
2023-07-27T10:13:40.118Z,4.30
2023-07-27T10:16:11.346Z,3.30
2023-07-27T10:18:46.399Z,4.20
2023-07-27T10:21:28.659Z,3.80
2023-07-27T10:24:01.546Z,3.60
2023-07-27T10:26:51.275Z,3.70
2023-07-27T10:29:22.435Z,3.50
2023-07-27T10:32:02.485Z,3.70
2023-07-27T10:34:37.675Z,3.80
2023-07-27T10:37:10.360Z,3.33
2023-07-27T10:39:48.454Z,3.43
2023-07-27T10:42:18.813Z,3.77
2023-07-27T10:44:49.761Z,3.60
2023-07-27T10:47:21.334Z,4.13
2023-07-27T10:49:50.869Z,3.70
2023-07-27T10:52:20.998Z,3.37
2023-07-27T10:54:50.195Z,4.10
2023-07-27T10:57:19.793Z,3.30
2023-07-27T10:59:50.636Z,3.37
2023-07-27T11:02:22.057Z,3.60
2023-07-27T11:04:50.888Z,3.50
2023-07-27T11:07:28.157Z,3.07
2023-07-27T11:09:56.332Z,4.37
2023-07-27T11:12:24.978Z,3.30
2023-07-27T11:14:55.053Z,3.23
2023-07-27T11:17:23.883Z,3.10
2023-07-27T11:19:53.222Z,3.53
2023-07-27T11:22:23.599Z,3.60
2023-07-27T11:24:51.756Z,4.17
2023-07-27T11:27:20.786Z,3.67
2023-07-27T11:29:50.687Z,3.87
2023-07-27T11:32:27.250Z,3.40
2023-07-27T11:34:56.262Z,3.87
2023-07-27T11:37:28.070Z,3.70
2023-07-27T11:39:56.320Z,4.67
2023-07-27T11:42:29.295Z,4.23
2023-07-27T11:44:58.257Z,4.20
2023-07-27T11:47:27.963Z,3.83
2023-07-27T11:49:57.177Z,4.60
2023-07-27T11:52:26.996Z,3.77
2023-07-27T11:54:55.617Z,4.10
2023-07-27T11:57:27.155Z,4.50
2023-07-27T12:00:04.087Z,4.50
2023-07-27T12:02:43.114Z,4.20
2023-07-27T12:05:14.992Z,4.90
2023-07-27T12:10:15.920Z,4.63
2023-07-27T12:12:52.728Z,5.37
2023-07-27T12:15:28.933Z,5.67
2023-07-27T12:17:59.819Z,5.13
2023-07-27T12:20:55.921Z,5.80
2023-07-27T12:26:28.102Z,5.27
2023-07-27T12:28:41.106Z,5.83
2023-07-27T12:33:42.973Z,5.90
2023-07-27T12:36:11.337Z,5.17
2023-07-27T12:41:11.149Z,6.73
2023-07-27T12:43:39.106Z,6.33
2023-07-27T12:46:07.253Z,5.53
2023-07-27T12:48:35.252Z,6.10
2023-07-27T12:51:06.984Z,5.43
2023-07-27T12:53:34.941Z,5.20
2023-07-27T12:56:04.330Z,5.60
2023-07-27T12:58:32.220Z,5.00
2023-07-27T13:01:00.293Z,5.40
2023-07-27T13:03:28.231Z,6.50
2023-07-27T13:05:56.248Z,5.50
2023-07-27T13:08:25.582Z,6.30
2023-07-27T13:10:53.530Z,6.10
2023-07-27T13:13:21.399Z,5.90
2023-07-27T13:15:49.383Z,5.20
2023-07-27T13:18:17.354Z,5.60
2023-07-27T13:20:45.267Z,5.07
2023-07-27T13:23:13.224Z,6.10
2023-07-27T13:25:42.551Z,6.50
2023-07-27T13:28:12.710Z,6.07
2023-07-27T13:30:40.674Z,6.80
2023-07-27T13:33:08.643Z,5.90
2023-07-27T13:35:38.903Z,5.53
2023-07-27T13:38:06.899Z,5.53
2023-07-27T13:40:34.864Z,6.00
2023-07-27T13:43:04.107Z,5.87
2023-07-27T13:45:32.008Z,5.67
2023-07-27T13:48:09.415Z,6.17
2023-07-27T13:50:38.955Z,6.47
2023-07-27T13:53:06.974Z,5.83
2023-07-27T13:55:34.906Z,6.30
2023-07-27T13:58:04.216Z,6.50
2023-07-27T14:00:32.232Z,6.00
2023-07-27T14:03:00.278Z,5.90
2023-07-27T14:05:29.318Z,5.97
2023-07-27T14:07:57.327Z,4.90
2023-07-27T14:10:27.602Z,5.40
2023-07-27T14:12:55.984Z,5.20
2023-07-27T14:15:25.318Z,6.13
2023-07-27T14:17:53.385Z,5.50
2023-07-27T14:20:21.923Z,5.50
2023-07-27T14:22:49.870Z,6.07
2023-07-27T14:25:17.851Z,5.67
2023-07-27T14:31:59.816Z,5.30
2023-07-27T14:34:28.368Z,6.60
2023-07-27T14:36:58.343Z,6.47
2023-07-27T14:39:48.242Z,5.50
2023-07-27T14:42:14.594Z,5.73
2023-07-27T14:44:46.674Z,5.07
2023-07-27T14:47:16.464Z,5.90
2023-07-27T14:49:57.592Z,5.63
2023-07-27T14:52:26.316Z,5.80
2023-07-27T14:54:57.420Z,5.53
2023-07-27T14:57:25.639Z,5.50
2023-07-27T14:59:57.630Z,5.73
2023-07-27T15:02:45.296Z,5.40
2023-07-27T15:05:14.390Z,6.13
2023-07-27T15:07:43.454Z,5.60
2023-07-27T15:10:30.721Z,5.77
2023-07-27T15:13:00.639Z,6.40
2023-07-27T15:15:29.917Z,6.30
2023-07-27T15:17:59.303Z,5.70
2023-07-27T15:20:27.242Z,6.30
2023-07-27T15:22:55.857Z,7.27
2023-07-27T15:25:24.914Z,6.10
2023-07-27T15:28:04.357Z,6.23
2023-07-27T15:30:32.494Z,6.33
2023-07-27T15:33:02.970Z,6.00
2023-07-27T15:35:34.863Z,6.90
2023-07-27T15:38:02.860Z,6.60
2023-07-27T15:40:30.797Z,5.93
2023-07-27T15:42:58.794Z,6.37
2023-07-27T15:45:26.730Z,6.63
2023-07-27T15:47:54.761Z,6.67
2023-07-27T15:50:24.857Z,5.70
2023-07-27T15:52:52.825Z,5.60
2023-07-27T15:55:21.882Z,5.50
2023-07-27T15:57:49.836Z,5.83
2023-07-27T16:00:20.606Z,5.80
2023-07-27T16:02:48.610Z,5.53
2023-07-27T16:05:16.771Z,4.57
2023-07-27T16:07:46.544Z,5.07
2023-07-27T16:10:14.699Z,4.93
2023-07-27T16:12:42.637Z,5.20
2023-07-27T16:15:11.354Z,4.70
2023-07-27T16:17:39.309Z,4.47
2023-07-27T16:20:10.173Z,4.40
2023-07-27T16:22:38.219Z,4.60
2023-07-27T16:25:10.455Z,4.17
2023-07-27T16:27:38.623Z,4.57
2023-07-27T16:30:07.830Z,4.77
2023-07-27T16:32:36.806Z,4.13
2023-07-27T16:35:05.036Z,4.20
2023-07-27T16:37:33.150Z,4.53
2023-07-27T16:40:01.293Z,4.53
2023-07-27T16:42:32.252Z,4.03
2023-07-27T16:45:04.546Z,5.80
2023-07-27T16:47:32.952Z,4.87
2023-07-27T16:50:00.882Z,4.80
2023-07-27T16:52:31.952Z,5.40
2023-07-27T16:54:59.897Z,4.70
2023-07-27T16:57:27.843Z,4.80
2023-07-27T16:59:57.125Z,4.87
2023-07-27T17:02:25.147Z,5.23
2023-07-27T17:04:53.547Z,4.93
2023-07-27T17:07:22.827Z,6.40
2023-07-27T17:09:51.284Z,4.90
2023-07-27T17:12:19.827Z,5.20
2023-07-27T17:14:47.766Z,6.17
2023-07-27T17:17:17.062Z,5.40
2023-07-27T17:19:47.823Z,5.00
2023-07-27T17:22:16.080Z,5.60
2023-07-27T17:24:43.989Z,5.93
2023-07-27T17:27:11.970Z,6.90
2023-07-27T17:29:42.201Z,6.27
2023-07-27T17:32:10.549Z,5.97
2023-07-27T17:34:39.930Z,6.03
2023-07-27T17:37:08.020Z,6.50
2023-07-27T17:39:35.961Z,6.90
2023-07-27T17:42:03.963Z,6.47
2023-07-27T17:44:31.992Z,6.13
2023-07-27T17:47:00.050Z,6.13
2023-07-27T17:49:27.990Z,8.10
2023-07-27T17:51:57.245Z,7.43
2023-07-27T17:54:25.193Z,7.43
2023-07-27T17:56:53.200Z,6.20
2023-07-27T17:59:25.318Z,7.53
2023-07-27T18:01:53.783Z,6.47
2023-07-27T18:04:21.759Z,7.80
2023-07-27T18:06:49.697Z,7.20
2023-07-27T18:09:19.103Z,7.90
2023-07-27T18:11:47.036Z,7.53
2023-07-27T18:14:14.988Z,7.50
2023-07-27T18:16:42.925Z,7.63
2023-07-27T18:19:11.182Z,8.13
2023-07-27T18:21:39.291Z,7.70
2023-07-27T18:24:21.998Z,9.10
2023-07-27T18:26:57.759Z,8.33
2023-07-27T18:33:16.106Z,8.57
2023-07-27T18:35:44.012Z,8.93
2023-07-27T18:38:13.031Z,8.60
2023-07-27T18:40:40.996Z,8.60
2023-07-27T18:43:10.404Z,8.63
2023-07-27T18:45:56.284Z,9.93
2023-07-27T18:48:25.437Z,8.87
2023-07-27T18:50:55.222Z,8.77
2023-07-27T18:53:24.400Z,8.33
2023-07-27T18:55:58.548Z,8.37
2023-07-27T18:58:30.997Z,9.13
2023-07-27T19:00:59.731Z,9.80
2023-07-27T19:03:28.528Z,9.40
2023-07-27T19:05:56.436Z,8.00
2023-07-27T19:08:24.390Z,8.93
2023-07-27T19:10:52.402Z,10.50
2023-07-27T19:13:20.344Z,10.33
2023-07-27T19:15:53.258Z,8.83
2023-07-27T19:18:22.015Z,9.80
2023-07-27T19:20:50.091Z,9.90
2023-07-27T19:23:18.148Z,8.97
2023-07-27T19:25:47.174Z,9.43
2023-07-27T19:28:26.403Z,9.70
2023-07-27T19:30:58.129Z,9.20
2023-07-27T19:33:28.963Z,10.30
2023-07-27T19:35:56.889Z,10.63
2023-07-27T19:38:25.182Z,9.97
2023-07-27T19:40:53.432Z,9.30
2023-07-27T19:43:23.158Z,9.60
2023-07-27T19:45:53.718Z,10.83
2023-07-27T19:48:22.981Z,10.70
2023-07-27T19:50:53.214Z,10.27
2023-07-27T19:53:21.222Z,9.60
2023-07-27T19:55:51.278Z,8.60
2023-07-27T19:58:19.243Z,8.83
2023-07-27T20:00:47.328Z,9.30
2023-07-27T20:03:15.427Z,10.50
2023-07-27T20:05:44.766Z,10.57
2023-07-27T20:08:13.181Z,9.90
2023-07-27T20:10:41.774Z,10.40
2023-07-27T20:13:09.787Z,10.97
2023-07-27T20:15:37.782Z,9.23
2023-07-27T20:18:06.025Z,9.47
2023-07-27T20:20:34.014Z,9.93
2023-07-27T20:23:03.819Z,10.47
2023-07-27T20:25:34.589Z,8.80
2023-07-27T20:28:02.666Z,10.23
2023-07-27T20:30:31.376Z,10.63
2023-07-27T20:32:59.905Z,9.60
2023-07-27T20:35:29.266Z,8.67
2023-07-27T20:37:58.160Z,8.40
2023-07-27T20:40:28.218Z,7.23
2023-07-27T20:42:56.981Z,6.80
2023-07-27T20:45:24.987Z,6.73
2023-07-27T20:47:53.471Z,6.47
2023-07-27T20:50:21.574Z,6.20
2023-07-27T20:52:50.934Z,6.30
2023-07-27T20:55:19.344Z,6.40
2023-07-27T20:57:51.279Z,5.20
2023-07-27T21:00:20.385Z,5.33
2023-07-27T21:02:49.030Z,5.10
2023-07-27T21:05:17.734Z,4.93
2023-07-27T21:07:46.311Z,4.97
2023-07-27T21:10:15.055Z,5.20
2023-07-27T21:12:45.961Z,5.27
2023-07-27T21:15:16.044Z,4.97
2023-07-27T21:17:44.672Z,4.90
2023-07-27T21:20:13.711Z,5.23
2023-07-27T21:22:44.170Z,5.40
2023-07-27T21:25:12.243Z,5.00
2023-07-27T21:27:46.094Z,5.57
2023-07-27T21:30:15.873Z,5.27
2023-07-27T21:32:43.877Z,5.97
2023-07-27T21:35:11.877Z,5.27
2023-07-27T21:37:39.791Z,6.47
2023-07-27T21:40:14.212Z,5.87
2023-07-27T21:42:42.426Z,5.93
2023-07-27T21:45:11.144Z,5.70
2023-07-27T21:47:40.544Z,6.37
2023-07-27T21:50:09.046Z,5.73
2023-07-27T21:52:37.026Z,5.13
2023-07-27T21:55:06.505Z,4.87
2023-07-27T21:57:34.752Z,6.77
2023-07-27T22:00:03.400Z,4.90
2023-07-27T22:02:37.984Z,4.40
2023-07-27T22:05:08.845Z,4.77
2023-07-27T22:07:36.962Z,5.20
2023-07-27T22:10:05.475Z,4.97
2023-07-27T22:12:33.388Z,5.50
2023-07-27T22:15:01.317Z,4.73
2023-07-27T22:17:30.959Z,4.50
2023-07-27T22:19:58.923Z,4.20
2023-07-27T22:22:28.208Z,4.30
2023-07-27T22:24:56.130Z,4.70
2023-07-27T22:27:24.081Z,4.20
2023-07-27T22:29:52.306Z,4.00
2023-07-27T22:32:20.975Z,4.17
2023-07-27T22:34:49.261Z,4.10
2023-07-27T22:37:17.248Z,4.40
2023-07-27T22:39:46.518Z,4.80
2023-07-27T22:42:16.643Z,5.20
2023-07-27T22:44:45.421Z,4.13
2023-07-27T22:47:14.024Z,4.43
2023-07-27T22:49:42.465Z,4.20
2023-07-27T22:52:10.576Z,4.50
2023-07-27T22:54:38.515Z,4.20
2023-07-27T22:57:09.061Z,3.77
2023-07-27T22:59:37.101Z,4.10
2023-07-27T23:02:05.372Z,4.53
2023-07-27T23:04:33.378Z,4.30
2023-07-27T23:07:01.392Z,3.80
2023-07-27T23:09:29.505Z,4.00
2023-07-27T23:11:57.757Z,4.20
2023-07-27T23:14:27.023Z,4.10
2023-07-27T23:16:55.132Z,4.00
2023-07-27T23:19:23.504Z,4.20
2023-07-27T23:21:51.540Z,4.23
2023-07-27T23:24:22.879Z,4.57
2023-07-27T23:26:50.910Z,4.13
2023-07-27T23:29:18.848Z,3.27
2023-07-27T23:31:48.115Z,4.33
2023-07-27T23:34:16.041Z,4.03
2023-07-27T23:36:46.251Z,3.53
2023-07-27T23:39:16.387Z,4.43
2023-07-27T23:41:44.816Z,4.33
2023-07-27T23:44:13.968Z,3.90
2023-07-27T23:46:42.167Z,4.10
2023-07-27T23:49:11.550Z,4.67
2023-07-27T23:51:39.788Z,4.00
2023-07-27T23:54:07.819Z,3.50
2023-07-27T23:56:35.949Z,4.20
2023-07-27T23:59:04.451Z,3.87
